createdAt,value
2019-05-14T00:00:57.255Z,7.60
2019-05-14T00:03:25.048Z,7.60
2019-05-14T00:05:53.047Z,7.50
2019-05-14T00:08:22.209Z,7.40
2019-05-14T00:10:52.047Z,7.40
2019-05-14T00:13:21.475Z,7.30
2019-05-14T00:15:49.279Z,7.30
2019-05-14T00:18:17.112Z,7.30
2019-05-14T00:20:44.960Z,7.20
2019-05-14T00:23:12.736Z,7.20
2019-05-14T00:25:41.893Z,7.10
2019-05-14T00:28:11.648Z,7.10
2019-05-14T00:30:39.339Z,7.00
2019-05-14T00:33:07.103Z,7.00
2019-05-14T00:35:35.818Z,6.90
2019-05-14T00:38:03.779Z,6.90
2019-05-14T00:40:31.643Z,6.80
2019-05-14T00:42:59.523Z,6.80
2019-05-14T00:45:28.275Z,6.80
2019-05-14T00:47:56.055Z,6.80
2019-05-14T00:50:23.935Z,6.70
2019-05-14T00:52:51.866Z,6.70
2019-05-14T00:55:22.100Z,6.70
2019-05-14T00:57:51.950Z,6.70
2019-05-14T01:00:19.119Z,6.60
2019-05-14T01:02:46.947Z,6.60
2019-05-14T01:05:14.827Z,6.60
2019-05-14T01:07:42.603Z,6.50
2019-05-14T01:10:11.941Z,6.50
2019-05-14T01:12:41.366Z,6.50
2019-05-14T01:15:13.407Z,6.50
2019-05-14T01:17:39.444Z,6.50
2019-05-14T01:20:07.413Z,6.40
2019-05-14T01:22:35.179Z,6.40
2019-05-14T01:25:03.153Z,6.40
2019-05-14T01:27:31.709Z,6.40
2019-05-14T01:30:01.894Z,6.30
2019-05-14T01:32:31.416Z,6.30
2019-05-14T01:34:58.847Z,6.30
2019-05-14T01:37:26.620Z,6.30
2019-05-14T01:39:54.410Z,6.40
2019-05-14T01:42:22.280Z,6.30
2019-05-14T01:44:52.000Z,6.30
2019-05-14T01:47:21.358Z,6.30
2019-05-14T01:49:51.308Z,6.30
2019-05-14T01:52:18.824Z,6.30
2019-05-14T01:54:46.690Z,6.20
2019-05-14T01:57:14.475Z,6.20
2019-05-14T01:59:43.029Z,6.20
2019-05-14T02:02:11.638Z,6.10
2019-05-14T02:04:42.442Z,6.10
2019-05-14T02:07:11.359Z,6.20
2019-05-14T02:09:38.706Z,6.10
2019-05-14T02:12:06.496Z,6.00
2019-05-14T02:14:34.258Z,6.00
2019-05-14T02:17:02.174Z,5.90
2019-05-14T02:19:31.668Z,5.90
2019-05-14T02:22:01.846Z,5.90
2019-05-14T02:24:28.979Z,5.90
2019-05-14T02:26:56.775Z,5.90
2019-05-14T02:29:24.618Z,5.80
2019-05-14T02:31:52.776Z,5.80
2019-05-14T02:34:20.551Z,5.80
2019-05-14T02:36:49.730Z,5.80
2019-05-14T02:39:19.627Z,5.70
2019-05-14T02:41:49.867Z,5.70
2019-05-14T02:44:18.855Z,5.70
2019-05-14T02:46:46.551Z,5.70
2019-05-14T02:49:14.319Z,5.70
2019-05-14T02:51:42.108Z,5.60
2019-05-14T02:54:10.338Z,5.60
2019-05-14T02:56:40.243Z,5.50
2019-05-14T02:59:09.781Z,5.50
2019-05-14T03:01:40.399Z,5.40
2019-05-14T03:04:09.087Z,5.40
2019-05-14T03:06:39.251Z,5.40
2019-05-14T03:09:08.943Z,5.30
2019-05-14T03:11:35.476Z,5.30
2019-05-14T03:14:03.524Z,5.20
2019-05-14T03:16:35.667Z,5.20
2019-05-14T03:19:01.052Z,5.20
2019-05-14T03:21:30.382Z,5.20
2019-05-14T03:24:00.806Z,5.20
2019-05-14T03:26:29.438Z,5.10
2019-05-14T03:29:00.071Z,5.10
2019-05-14T03:31:32.701Z,5.10
2019-05-14T03:34:01.981Z,5.10
2019-05-14T03:36:33.360Z,5.20
2019-05-14T03:38:59.219Z,5.10
2019-05-14T03:41:25.738Z,5.20
2019-05-14T03:43:53.527Z,5.20
2019-05-14T03:46:39.789Z,5.20
2019-05-14T03:48:50.898Z,5.30
2019-05-14T03:51:20.297Z,5.30
2019-05-14T03:54:01.378Z,5.30
2019-05-14T03:56:19.255Z,5.30
2019-05-14T03:58:49.523Z,5.30
2019-05-14T04:01:19.984Z,5.40
2019-05-14T04:03:50.055Z,5.40
2019-05-14T04:06:19.162Z,5.50
2019-05-14T04:08:49.509Z,5.50
2019-05-14T04:11:19.827Z,5.60
2019-05-14T04:13:49.670Z,5.60
2019-05-14T04:16:20.203Z,5.60
2019-05-14T04:18:50.430Z,5.60
2019-05-14T04:21:20.591Z,5.70
2019-05-14T04:23:50.762Z,5.80
2019-05-14T04:26:20.464Z,5.80
2019-05-14T04:28:50.306Z,5.80
2019-05-14T04:31:19.680Z,5.90
2019-05-14T04:33:49.966Z,6.00
2019-05-14T04:36:19.464Z,6.00
2019-05-14T04:38:51.472Z,6.10
2019-05-14T04:41:19.555Z,6.10
2019-05-14T04:43:49.692Z,6.20
2019-05-14T04:46:19.491Z,6.30
2019-05-14T04:48:50.029Z,6.40
2019-05-14T04:51:15.563Z,6.40
2019-05-14T04:53:43.431Z,6.50
2019-05-14T04:56:11.597Z,6.60
2019-05-14T04:58:40.864Z,6.70
2019-05-14T05:01:09.782Z,6.80
2019-05-14T05:03:40.087Z,6.90
2019-05-14T05:06:09.871Z,7.00
2019-05-14T05:08:39.555Z,7.00
2019-05-14T05:11:09.317Z,7.00
2019-05-14T05:13:39.290Z,7.10
2019-05-14T05:16:05.937Z,7.20
2019-05-14T05:18:33.724Z,7.30
2019-05-14T05:21:01.492Z,7.40
2019-05-14T05:23:29.358Z,7.40
2019-05-14T05:25:58.494Z,7.40
2019-05-14T05:28:28.382Z,7.50
2019-05-14T05:30:58.328Z,7.60
2019-05-14T05:33:25.828Z,7.60
2019-05-14T05:35:53.722Z,7.70
2019-05-14T05:38:21.492Z,7.90
2019-05-14T05:40:49.371Z,8.00
2019-05-14T05:43:19.130Z,8.00
2019-05-14T05:45:48.555Z,8.10
2019-05-14T05:48:18.818Z,8.20
2019-05-14T05:50:48.471Z,8.30
2019-05-14T05:53:15.894Z,8.50
2019-05-14T05:55:43.682Z,8.60
2019-05-14T05:58:11.459Z,8.80
2019-05-14T06:00:40.419Z,9.00
2019-05-14T06:03:10.864Z,9.00
2019-05-14T06:05:39.044Z,9.10
2019-05-14T06:08:08.596Z,9.10
2019-05-14T06:10:36.599Z,9.20
2019-05-14T06:13:04.389Z,9.30
2019-05-14T06:15:44.728Z,9.30
2019-05-14T06:18:13.983Z,9.40
2019-05-14T06:20:31.395Z,9.40
2019-05-14T06:22:59.263Z,9.40
2019-05-14T06:25:30.886Z,9.60
2019-05-14T06:27:58.916Z,9.80
2019-05-14T06:30:31.066Z,9.90
2019-05-14T06:32:59.439Z,9.90
2019-05-14T06:35:28.508Z,10.00
2019-05-14T06:37:58.212Z,10.00
2019-05-14T06:40:28.561Z,9.90
2019-05-14T06:42:55.810Z,9.80
2019-05-14T06:45:23.691Z,9.80
2019-05-14T06:47:52.567Z,9.90
2019-05-14T06:50:20.447Z,9.90
2019-05-14T06:52:49.204Z,9.90
2019-05-14T06:55:18.012Z,10.10
2019-05-14T06:57:48.074Z,10.10
2019-05-14T07:00:15.864Z,10.30
2019-05-14T07:02:44.317Z,10.50
2019-05-14T07:05:12.498Z,10.60
2019-05-14T07:07:40.822Z,10.60
2019-05-14T07:10:09.227Z,10.90
2019-05-14T07:12:38.662Z,11.00
2019-05-14T07:15:09.349Z,11.00
2019-05-14T07:17:38.414Z,11.00
2019-05-14T07:20:08.892Z,10.90
2019-05-14T07:22:38.710Z,10.90
2019-05-14T07:25:09.505Z,10.90
2019-05-14T07:27:38.962Z,11.10
2019-05-14T07:30:06.077Z,11.20
2019-05-14T07:32:34.116Z,11.50
2019-05-14T07:35:01.914Z,12.00
2019-05-14T07:37:29.823Z,12.10
2019-05-14T07:39:58.009Z,12.10
2019-05-14T07:42:26.020Z,11.90
2019-05-14T07:44:53.791Z,11.90
2019-05-14T07:47:21.719Z,11.70
2019-05-14T07:49:49.518Z,11.70
2019-05-14T07:52:19.746Z,11.90
2019-05-14T07:54:48.140Z,11.90
2019-05-14T07:57:16.111Z,11.80
2019-05-14T07:59:44.058Z,11.70
2019-05-14T08:02:12.941Z,11.70
2019-05-14T08:04:40.831Z,11.70
2019-05-14T08:07:09.170Z,11.70
2019-05-14T08:09:38.953Z,11.80
2019-05-14T08:12:39.147Z,12.00
2019-05-14T08:15:17.455Z,12.10
2019-05-14T08:17:38.778Z,12.30
2019-05-14T08:20:08.881Z,12.40
2019-05-14T08:22:38.351Z,12.70
2019-05-14T08:25:08.464Z,13.00
2019-05-14T08:27:38.629Z,13.20
2019-05-14T08:30:08.188Z,13.40
2019-05-14T08:32:36.176Z,13.50
2019-05-14T08:35:04.305Z,13.50
2019-05-14T08:37:32.102Z,13.40
2019-05-14T08:39:59.876Z,13.30
2019-05-14T08:42:29.095Z,13.20
2019-05-14T08:44:59.164Z,13.30
2019-05-14T08:47:28.991Z,13.50
2019-05-14T08:49:56.397Z,13.50
2019-05-14T08:52:24.190Z,13.50
2019-05-14T08:55:05.373Z,13.30
2019-05-14T08:57:21.587Z,13.40
2019-05-14T08:59:49.388Z,13.30
2019-05-14T09:02:19.381Z,13.20
2019-05-14T09:04:52.695Z,12.90
2019-05-14T09:07:18.338Z,13.10
2019-05-14T09:09:45.797Z,13.20
2019-05-14T09:12:13.571Z,13.20
2019-05-14T09:14:41.372Z,13.20
2019-05-14T09:17:09.918Z,13.30
2019-05-14T09:19:40.827Z,13.40
2019-05-14T09:22:09.561Z,13.60
2019-05-14T09:24:38.705Z,13.70
2019-05-14T09:27:08.482Z,13.80
2019-05-14T09:29:39.174Z,13.90
2019-05-14T09:32:06.080Z,13.70
2019-05-14T09:34:33.927Z,13.70
2019-05-14T09:37:01.712Z,13.90
2019-05-14T09:39:29.511Z,14.20
2019-05-14T09:41:58.129Z,14.30
2019-05-14T09:44:26.161Z,14.40
2019-05-14T09:46:54.048Z,14.70
2019-05-14T09:49:21.842Z,15.00
2019-05-14T09:51:49.623Z,14.70
2019-05-14T09:54:19.280Z,14.60
2019-05-14T09:56:48.530Z,14.20
2019-05-14T09:59:18.406Z,14.00
2019-05-14T10:01:45.991Z,14.10
2019-05-14T10:04:13.803Z,14.10
2019-05-14T10:06:41.856Z,14.10
2019-05-14T10:09:09.655Z,14.10
2019-05-14T10:11:38.362Z,13.90
2019-05-14T10:14:08.026Z,13.90
2019-05-14T10:16:38.230Z,13.80
2019-05-14T10:19:05.565Z,13.90
2019-05-14T10:21:33.347Z,14.20
2019-05-14T10:24:01.143Z,14.30
2019-05-14T10:26:29.032Z,14.20
2019-05-14T10:28:59.047Z,14.10
2019-05-14T10:31:28.905Z,13.90
2019-05-14T10:33:58.712Z,14.10
2019-05-14T10:36:26.101Z,14.30
2019-05-14T10:38:53.889Z,14.50
2019-05-14T10:41:21.671Z,14.60
2019-05-14T10:43:49.877Z,14.70
2019-05-14T10:46:19.341Z,14.60
2019-05-14T10:48:47.344Z,14.40
2019-05-14T10:51:15.119Z,14.30
2019-05-14T10:53:42.914Z,14.10
2019-05-14T10:56:10.841Z,14.10
2019-05-14T10:58:38.624Z,14.30
2019-05-14T11:03:40.533Z,14.60
2019-05-14T11:06:11.415Z,14.40
2019-05-14T11:08:38.771Z,14.20
2019-05-14T11:11:10.368Z,13.80
2019-05-14T11:13:39.229Z,13.60
2019-05-14T11:16:08.644Z,13.70
2019-05-14T11:18:35.835Z,13.90
2019-05-14T11:21:18.807Z,14.20
2019-05-14T11:23:33.148Z,14.30
2019-05-14T11:26:00.936Z,14.60
2019-05-14T11:28:28.918Z,14.60
2019-05-14T11:30:56.783Z,14.30
2019-05-14T11:33:24.559Z,14.10
2019-05-14T11:35:52.675Z,13.90
2019-05-14T11:38:31.952Z,13.70
2019-05-14T11:40:49.972Z,13.70
2019-05-14T11:43:17.751Z,13.70
2019-05-14T11:45:48.293Z,13.80
2019-05-14T11:48:15.059Z,14.00
2019-05-14T11:50:42.867Z,13.90
2019-05-14T11:53:10.632Z,13.70
2019-05-14T11:55:38.950Z,13.70
2019-05-14T11:58:08.741Z,13.60
2019-05-14T12:00:38.849Z,13.30
2019-05-14T12:03:09.067Z,13.40
2019-05-14T12:05:38.669Z,13.50
2019-05-14T12:08:05.880Z,13.70
2019-05-14T12:10:33.684Z,13.80
2019-05-14T12:13:01.467Z,13.90
2019-05-14T12:15:29.311Z,14.10
2019-05-14T12:17:59.540Z,13.90
2019-05-14T12:20:29.447Z,13.70
2019-05-14T12:22:56.142Z,13.60
2019-05-14T12:25:23.930Z,13.60
2019-05-14T12:27:51.715Z,13.60
2019-05-14T12:30:19.899Z,13.70
2019-05-14T12:32:50.099Z,14.00
2019-05-14T12:35:19.680Z,14.20
2019-05-14T12:37:46.775Z,14.40
2019-05-14T12:40:14.562Z,14.60
2019-05-14T12:42:42.379Z,14.70
2019-05-14T12:45:10.329Z,14.80
2019-05-14T12:47:38.519Z,15.00
2019-05-14T12:50:09.132Z,14.90
2019-05-14T12:52:38.664Z,14.90
2019-05-14T12:55:05.875Z,14.90
2019-05-14T12:57:33.668Z,15.10
2019-05-14T13:00:01.438Z,15.30
2019-05-14T13:02:29.746Z,15.40
2019-05-14T13:05:00.137Z,15.50
2019-05-14T13:07:27.175Z,15.20
2019-05-14T13:09:55.004Z,15.00
2019-05-14T13:12:23.047Z,14.90
2019-05-14T13:14:50.857Z,14.80
2019-05-14T13:17:20.087Z,14.80
2019-05-14T13:19:48.722Z,14.70
2019-05-14T13:22:22.350Z,14.70
2019-05-14T13:24:49.063Z,14.50
2019-05-14T13:27:18.945Z,14.30
2019-05-14T13:29:48.553Z,14.50
2019-05-14T13:32:15.314Z,14.60
2019-05-14T13:34:43.452Z,14.60
2019-05-14T13:37:11.339Z,14.70
2019-05-14T13:39:39.880Z,14.70
2019-05-14T13:42:11.715Z,14.60
2019-05-14T13:44:38.470Z,14.30
2019-05-14T13:47:09.039Z,14.30
2019-05-14T13:49:38.913Z,14.50
2019-05-14T13:52:09.101Z,14.60
2019-05-14T13:54:35.740Z,15.00
2019-05-14T13:57:03.547Z,15.00
2019-05-14T13:59:31.325Z,14.70
2019-05-14T14:01:59.352Z,14.50
2019-05-14T14:04:27.323Z,14.40
2019-05-14T14:06:55.370Z,14.60
2019-05-14T14:09:23.255Z,14.90
2019-05-14T14:11:52.536Z,15.00
2019-05-14T14:14:20.336Z,14.80
2019-05-14T14:16:48.977Z,14.50
2019-05-14T14:19:18.806Z,14.50
2019-05-14T14:21:49.259Z,14.70
2019-05-14T14:24:16.148Z,14.90
2019-05-14T14:26:44.164Z,15.00
2019-05-14T14:29:12.049Z,15.20
2019-05-14T14:31:41.657Z,15.50
2019-05-14T14:34:09.599Z,15.60
2019-05-14T14:36:38.632Z,15.40
2019-05-14T14:39:09.501Z,15.20
2019-05-14T14:41:38.481Z,14.90
2019-05-14T14:44:08.596Z,14.60
2019-05-14T14:46:35.608Z,14.50
2019-05-14T14:49:03.486Z,14.40
2019-05-14T14:51:31.595Z,14.30
2019-05-14T14:54:07.375Z,14.40
2019-05-14T14:56:29.119Z,14.60
2019-05-14T14:58:56.926Z,15.00
2019-05-14T15:01:24.852Z,15.10
2019-05-14T15:03:52.759Z,14.70
2019-05-14T15:06:20.968Z,14.20
2019-05-14T15:08:49.762Z,14.10
2019-05-14T15:11:17.975Z,14.10
2019-05-14T15:13:48.091Z,14.30
2019-05-14T15:16:15.674Z,14.40
2019-05-14T15:18:43.712Z,14.50
2019-05-14T15:21:11.587Z,14.50
2019-05-14T15:23:43.217Z,14.70
2019-05-14T15:26:12.040Z,14.80
2019-05-14T15:28:39.183Z,14.60
2019-05-14T15:31:08.770Z,14.70
2019-05-14T15:33:37.247Z,14.60
2019-05-14T15:36:05.400Z,14.50
2019-05-14T15:38:33.298Z,14.40
2019-05-14T15:41:01.167Z,14.30
2019-05-14T15:43:29.057Z,15.10
2019-05-14T15:45:58.953Z,15.50
2019-05-14T15:48:27.048Z,16.30
2019-05-14T15:50:54.831Z,17.50
2019-05-14T15:53:22.687Z,19.40
2019-05-14T15:55:50.522Z,21.30
2019-05-14T15:58:21.319Z,22.30
2019-05-14T16:00:48.417Z,21.50
2019-05-14T16:03:18.638Z,20.20
2019-05-14T16:05:48.630Z,18.50
2019-05-14T16:08:15.471Z,17.20
2019-05-14T16:10:43.279Z,16.60
2019-05-14T16:13:11.320Z,18.00
2019-05-14T16:15:39.134Z,20.00
2019-05-14T16:18:15.446Z,20.30
2019-05-14T16:20:38.984Z,19.80
2019-05-14T16:23:06.260Z,18.90
2019-05-14T16:25:34.994Z,18.00
2019-05-14T16:28:02.789Z,16.90
2019-05-14T16:30:30.579Z,15.80
2019-05-14T16:32:59.844Z,16.50
2019-05-14T16:35:28.565Z,16.80
2019-05-14T16:37:59.027Z,16.20
2019-05-14T16:40:28.600Z,15.40
2019-05-14T16:42:55.592Z,15.00
2019-05-14T16:45:23.391Z,16.10
2019-05-14T16:47:51.170Z,18.30
2019-05-14T16:50:19.077Z,20.80
2019-05-14T16:52:49.249Z,21.70
2019-05-14T16:55:26.172Z,22.50
2019-05-14T16:57:46.077Z,23.50
2019-05-14T17:00:13.959Z,24.00
2019-05-14T17:02:41.749Z,24.10
2019-05-14T17:05:09.831Z,23.30
2019-05-14T17:07:38.574Z,23.40
2019-05-14T17:10:08.532Z,23.40
2019-05-14T17:12:49.570Z,22.70
2019-05-14T17:15:09.210Z,22.80
2019-05-14T17:17:35.884Z,23.20
2019-05-14T17:20:03.792Z,24.00
2019-05-14T17:22:33.757Z,24.20
2019-05-14T17:25:01.120Z,24.40
2019-05-14T17:27:28.900Z,24.50
2019-05-14T17:29:58.845Z,24.30
2019-05-14T17:32:26.191Z,24.20
2019-05-14T17:34:54.015Z,24.20
2019-05-14T17:37:21.861Z,23.90
2019-05-14T17:39:49.653Z,23.90
2019-05-14T17:42:19.234Z,23.40
2019-05-14T17:44:48.294Z,22.60
2019-05-14T17:47:18.201Z,21.80
2019-05-14T17:49:45.707Z,21.00
2019-05-14T17:52:13.691Z,20.60
2019-05-14T17:54:42.207Z,20.30
2019-05-14T17:57:10.140Z,19.80
2019-05-14T17:59:39.060Z,20.50
2019-05-14T18:02:08.677Z,20.10
2019-05-14T18:04:36.675Z,19.40
2019-05-14T18:07:04.829Z,19.00
2019-05-14T18:09:32.616Z,17.80
2019-05-14T18:12:00.420Z,17.20
2019-05-14T18:14:28.544Z,16.30
2019-05-14T18:16:58.457Z,15.20
2019-05-14T18:19:28.726Z,14.30
2019-05-14T18:21:56.086Z,13.50
2019-05-14T18:24:23.863Z,12.70
2019-05-14T18:26:51.668Z,12.10
2019-05-14T18:29:19.471Z,11.80
2019-05-14T18:34:18.815Z,11.20
2019-05-14T18:36:48.687Z,11.00
2019-05-14T18:39:18.292Z,10.80
2019-05-14T18:41:45.043Z,10.60
2019-05-14T18:44:12.843Z,10.40
2019-05-14T18:46:40.648Z,10.30
2019-05-14T18:49:08.863Z,10.20
2019-05-14T18:51:36.816Z,10.10
2019-05-14T18:54:04.591Z,10.00
2019-05-14T18:56:32.476Z,9.90
2019-05-14T18:59:00.302Z,9.80
2019-05-14T19:01:28.885Z,9.70
2019-05-14T19:03:58.927Z,9.60
2019-05-14T19:06:28.358Z,9.50
2019-05-14T19:08:56.703Z,9.40
2019-05-14T19:11:24.500Z,9.30
2019-05-14T19:13:52.347Z,9.30
2019-05-14T19:16:20.615Z,9.20
2019-05-14T19:18:48.962Z,9.10
2019-05-14T19:21:17.087Z,9.10
2019-05-14T19:23:45.409Z,9.10
2019-05-14T19:26:13.383Z,9.00
2019-05-14T19:28:41.220Z,9.00
2019-05-14T19:31:09.315Z,9.00
2019-05-14T19:33:38.054Z,8.90
2019-05-14T19:36:08.602Z,8.80
2019-05-14T19:38:35.652Z,8.80
2019-05-14T19:41:03.761Z,8.70
2019-05-14T19:43:31.561Z,8.70
2019-05-14T19:48:30.439Z,8.50
2019-05-14T19:50:58.412Z,8.50
2019-05-14T19:53:28.300Z,8.40
2019-05-14T19:55:55.552Z,8.40
2019-05-14T19:58:23.352Z,8.30
2019-05-14T20:00:51.307Z,8.30
2019-05-14T20:03:19.100Z,8.20
2019-05-14T20:05:47.676Z,8.20
2019-05-14T20:08:15.520Z,8.10
2019-05-14T20:10:43.365Z,8.10
2019-05-14T20:13:11.160Z,8.00
2019-05-14T20:15:39.146Z,8.00
2019-05-14T20:18:08.973Z,7.90
2019-05-14T20:20:38.303Z,7.90
2019-05-14T20:23:06.341Z,7.80
2019-05-14T20:25:34.223Z,7.70
2019-05-14T20:28:02.104Z,7.60
2019-05-14T20:30:29.954Z,7.60
2019-05-14T20:32:59.288Z,7.60
2019-05-14T20:35:34.344Z,7.60
2019-05-14T20:37:58.598Z,7.50
2019-05-14T20:40:28.351Z,7.50
2019-05-14T20:42:55.854Z,7.40
2019-05-14T20:45:23.633Z,7.40
2019-05-14T20:47:51.427Z,7.30
2019-05-14T20:50:19.278Z,7.30
2019-05-14T20:52:48.405Z,7.30
2019-05-14T20:55:18.883Z,7.20
2019-05-14T20:57:45.907Z,7.20
2019-05-14T21:00:13.755Z,7.10
2019-05-14T21:02:41.563Z,7.10
2019-05-14T21:05:13.612Z,7.00
2019-05-14T21:07:39.068Z,7.10
2019-05-14T21:10:07.448Z,7.00
2019-05-14T21:12:35.455Z,6.90
2019-05-14T21:15:03.553Z,6.90
2019-05-14T21:17:31.682Z,6.90
2019-05-14T21:19:59.483Z,6.90
2019-05-14T21:22:29.039Z,6.80
2019-05-14T21:24:56.928Z,6.80
2019-05-14T21:27:38.498Z,6.80
2019-05-14T21:29:54.279Z,6.70
2019-05-14T21:32:22.043Z,6.70
2019-05-14T21:34:49.836Z,6.60
2019-05-14T21:37:18.826Z,6.60
2019-05-14T21:39:48.924Z,6.60
2019-05-14T21:42:19.280Z,6.50
2019-05-14T21:44:48.401Z,6.50
2019-05-14T21:47:15.754Z,6.50
2019-05-14T21:49:44.087Z,6.50
2019-05-14T21:52:12.013Z,6.40
2019-05-14T21:54:39.808Z,6.40
2019-05-14T21:57:11.466Z,6.30
2019-05-14T21:59:39.039Z,6.30
2019-05-14T22:02:07.532Z,6.30
2019-05-14T22:04:35.431Z,6.30
2019-05-14T22:07:03.228Z,6.20
2019-05-14T22:09:31.215Z,6.20
2019-05-14T22:11:59.111Z,6.20
2019-05-14T22:14:28.325Z,6.10
2019-05-14T22:16:58.079Z,6.10
2019-05-14T22:19:25.726Z,6.10
2019-05-14T22:21:53.526Z,6.00
2019-05-14T22:24:21.376Z,6.00
2019-05-14T22:26:49.151Z,5.90
2019-05-14T22:29:17.851Z,5.90
2019-05-14T22:31:45.879Z,5.90
2019-05-14T22:34:13.752Z,5.80
2019-05-14T22:36:41.602Z,5.80
2019-05-14T22:39:09.487Z,5.80
2019-05-14T22:41:38.235Z,5.70
2019-05-14T22:44:06.431Z,5.70
2019-05-14T22:46:34.484Z,5.60
2019-05-14T22:49:02.343Z,5.60
2019-05-14T22:51:33.111Z,5.60
2019-05-14T22:53:59.738Z,5.50
2019-05-14T22:56:28.053Z,5.50
2019-05-14T22:58:58.142Z,5.50
2019-05-14T23:01:25.420Z,5.50
2019-05-14T23:03:53.236Z,5.40
2019-05-14T23:06:21.043Z,5.40
2019-05-14T23:08:49.008Z,5.30
2019-05-14T23:11:19.472Z,5.30
2019-05-14T23:13:48.557Z,5.30
2019-05-14T23:16:30.175Z,5.20
2019-05-14T23:18:45.624Z,5.20
2019-05-14T23:21:13.471Z,5.20
2019-05-14T23:23:41.292Z,5.20
2019-05-14T23:26:09.487Z,5.10
2019-05-14T23:28:44.450Z,5.10
2019-05-14T23:31:08.474Z,5.00
2019-05-14T23:33:38.620Z,5.00
2019-05-14T23:36:08.600Z,5.00
2019-05-14T23:40:55.636Z,5.00
2019-05-14T23:43:23.437Z,5.00
2019-05-14T23:45:51.239Z,4.90
2019-05-14T23:48:19.011Z,4.80
2019-05-14T23:50:48.802Z,4.80
2019-05-14T23:53:18.427Z,4.80
2019-05-14T23:55:48.069Z,4.80
2019-05-14T23:58:15.655Z,4.80
